Huvudsida
METAR-TAF:

METAR-TAF

Flygplatser :

Szolnok flygplats

Szolnok, Ungern

latitud: 47-07N, longitud: 020-14E, höjd: 89 m

Aktuellt väderrapport

Denna rapport gjordes för 38 minuter sedan, klockan 05:15 UTC
Stilla vind
Temperatur 2°C
Fuktighet 100%
Tryck 1019 hPa
Sikt: 2000 m
Brutna moln på en höjd av 4500 ft
fuktdis

METAR: LHSN 160515Z 00000KT 2000 BR BKN045 02/02 Q1019 NOSIG RMK YLO

Tid: 06:53 (05:53 UTC)

Väderprognos

Denna rapport gjordes för 38 minuter sedan, klockan 05:15 UTC
Prognos gäller från 16 kl. 06 UTC till 16 kl. 15 UTC
Vind 3 kt varierande vindriktning
Sikt: 5000 m
Brutna moln på en höjd av 4000 ft
fuktdis
Temporärt
från 16 kl. 06 UTC till 16 kl. 08 UTC
Sikt: 1500 m
Mulet på en höjd av 2000 ft
fuktdis, grunt dimma
Blir
från 16 kl. 08 UTC till 16 kl. 10 UTC
Vind 7 kt från syd
Sikt 10 km eller mer
Inga moln under 1 500 m eller inga cumulonimbus

TAF: LHSN 160515Z 1606/1615 VRB03KT 5000 BR BKN040 TEMPO 1606/1608 1500 BR MIFG OVC020 BECMG 1608/1610 17007KT CAVOK

Aktuella väderrapporter och prognoser från 4000 flygplatser (METAR- och TAF-rapporter).

De tillgängliga stationerna syns som gula och röda prickar på kartan.

För musen över prickarna för att se namnen på stationerna.

Klicka sedan för att få väderrapporter och prognoser.

För att ändra kartan: Klicka på de gröna knapparna med ett svart kors på för att zooma in; den gröna knappen med ett streck på för att zooma ut; eller på de gröna pilarna för angränsande kartor.


METAR-TAF: